createdAt,value
2023-11-29T00:00:01.062Z,100632.69
2023-11-29T00:02:28.113Z,100629.22
2023-11-29T00:04:55.452Z,100629.03
2023-11-29T00:07:22.527Z,100629.03
2023-11-29T00:09:49.484Z,100626.81
2023-11-29T00:12:16.329Z,100625.38
2023-11-29T00:14:43.184Z,100620.25
2023-11-29T00:17:12.201Z,100624.56
2023-11-29T00:19:42.461Z,100616.34
2023-11-29T00:22:09.354Z,100623.31
2023-11-29T00:24:36.238Z,100618.22
2023-11-29T00:27:05.433Z,100607.13
2023-11-29T00:29:32.430Z,100609.41
2023-11-29T00:32:00.261Z,100602.00
2023-11-29T00:34:27.147Z,100605.09
2023-11-29T00:36:54.223Z,100608.59
2023-11-29T00:39:21.983Z,100598.72
2023-11-29T00:41:49.046Z,100600.75
2023-11-29T00:44:16.074Z,100602.81
2023-11-29T00:46:43.247Z,100602.63
2023-11-29T00:49:10.368Z,100603.88
2023-11-29T00:51:37.326Z,100605.13
2023-11-29T00:54:04.324Z,100598.72
2023-11-29T00:56:31.283Z,100602.25
2023-11-29T00:58:58.174Z,100605.13
2023-11-29T01:01:25.156Z,100602.63
2023-11-29T01:03:52.212Z,100600.38
2023-11-29T01:06:19.261Z,100599.56
2023-11-29T01:08:46.191Z,100604.06
2023-11-29T01:11:13.114Z,100599.75
2023-11-29T01:13:40.024Z,100596.25
2023-11-29T01:16:07.120Z,100597.06
2023-11-29T01:18:34.888Z,100600.34
2023-11-29T01:21:01.849Z,100595.63
2023-11-29T01:23:28.769Z,100592.72
2023-11-29T01:25:55.645Z,100606.28
2023-11-29T01:28:23.376Z,100594.13
2023-11-29T01:30:50.340Z,100605.66
2023-11-29T01:33:17.398Z,100599.28
2023-11-29T01:35:44.396Z,100592.69
2023-11-29T01:38:11.403Z,100587.31
2023-11-29T01:40:38.392Z,100585.69
2023-11-29T01:43:05.259Z,100590.84
2023-11-29T01:45:32.355Z,100585.94
2023-11-29T01:48:00.348Z,100584.06
2023-11-29T01:50:34.000Z,100579.16
2023-11-29T01:53:01.082Z,100577.09
2023-11-29T01:55:29.580Z,100569.50
2023-11-29T01:57:57.596Z,100571.13
2023-11-29T02:00:24.784Z,100578.56
2023-11-29T02:02:51.909Z,100590.28
2023-11-29T02:05:19.043Z,100585.34
2023-11-29T02:07:46.776Z,100582.84
2023-11-29T02:10:13.854Z,100593.34
2023-11-29T02:12:42.033Z,100598.03
2023-11-29T02:15:10.250Z,100593.91
2023-11-29T02:17:37.336Z,100594.94
2023-11-29T02:20:04.887Z,100593.47
2023-11-29T02:22:34.971Z,100598.97
2023-11-29T02:25:01.995Z,100598.50
2023-11-29T02:27:30.250Z,100592.13
2023-11-29T02:29:57.212Z,100590.66
2023-11-29T02:32:24.151Z,100584.94
2023-11-29T02:34:51.406Z,100584.97
2023-11-29T02:37:18.293Z,100583.34
2023-11-29T02:39:45.406Z,100584.41
2023-11-29T02:42:12.382Z,100576.00
2023-11-29T02:44:39.423Z,100569.88
2023-11-29T02:47:06.676Z,100572.75
2023-11-29T02:49:33.648Z,100565.78
2023-11-29T02:52:00.612Z,100572.38
2023-11-29T02:54:27.532Z,100571.53
2023-11-29T02:56:54.464Z,100565.16
2023-11-29T02:59:21.470Z,100569.91
2023-11-29T03:01:48.424Z,100572.81
2023-11-29T03:04:15.945Z,100578.16
2023-11-29T03:06:42.816Z,100567.47
2023-11-29T03:09:09.724Z,100577.97
2023-11-29T03:11:37.186Z,100575.50
2023-11-29T03:14:04.312Z,100577.16
2023-11-29T03:16:31.320Z,100579.19
2023-11-29T03:18:58.314Z,100577.53
2023-11-29T03:21:26.347Z,100573.44
2023-11-29T03:23:53.662Z,100575.06
2023-11-29T03:26:20.656Z,100574.41
2023-11-29T03:28:47.552Z,100571.94
2023-11-29T03:31:14.530Z,100563.94
2023-11-29T03:33:41.356Z,100564.97
2023-11-29T03:36:09.535Z,100558.41
2023-11-29T03:38:36.497Z,100555.53
2023-11-29T03:41:04.761Z,100554.91
2023-11-29T03:43:31.635Z,100539.91
2023-11-29T03:45:58.514Z,100536.22
2023-11-29T03:48:25.390Z,100531.91
2023-11-29T03:50:52.379Z,100532.09
2023-11-29T03:53:19.329Z,100533.16
2023-11-29T03:55:46.167Z,100528.41
2023-11-29T03:58:13.181Z,100529.06
2023-11-29T04:00:40.074Z,100531.72
2023-11-29T04:03:09.961Z,100528.00
2023-11-29T04:05:37.158Z,100529.88
2023-11-29T04:08:04.606Z,100528.19
2023-11-29T04:10:34.998Z,100531.09
2023-11-29T04:13:02.767Z,100540.53
2023-11-29T04:15:29.873Z,100537.44
2023-11-29T04:17:58.148Z,100528.19
2023-11-29T04:20:25.165Z,100529.84
2023-11-29T04:22:52.410Z,100544.88
2023-11-29T04:25:20.328Z,100535.63
2023-11-29T04:27:47.698Z,100536.22
2023-11-29T04:30:14.789Z,100537.25
2023-11-29T04:32:43.270Z,100531.72
2023-11-29T04:35:10.188Z,100532.97
2023-11-29T04:37:37.429Z,100535.41
2023-11-29T04:40:08.566Z,100531.91
2023-11-29T04:42:37.467Z,100529.41
2023-11-29T04:45:04.879Z,100534.16
2023-11-29T04:47:31.797Z,100531.28
2023-11-29T04:49:58.674Z,100530.06
2023-11-29T04:52:25.587Z,100538.28
2023-11-29T04:54:52.592Z,100529.44
2023-11-29T04:57:19.410Z,100532.31
2023-11-29T04:59:46.364Z,100530.47
2023-11-29T05:02:13.496Z,100532.53
2023-11-29T05:04:40.417Z,100533.97
2023-11-29T05:07:07.350Z,100544.44
2023-11-29T05:09:34.195Z,100540.34
2023-11-29T05:12:01.032Z,100531.91
2023-11-29T05:14:27.977Z,100538.88
2023-11-29T05:16:54.813Z,100533.75
2023-11-29T05:19:23.850Z,100532.94
2023-11-29T05:21:51.153Z,100533.72
2023-11-29T05:24:18.005Z,100542.59
2023-11-29T05:26:44.914Z,100543.00
2023-11-29T05:29:11.770Z,100542.38
2023-11-29T05:31:38.687Z,100539.91
2023-11-29T05:34:07.258Z,100544.81
2023-11-29T05:36:34.216Z,100537.84
2023-11-29T05:39:01.209Z,100545.47
2023-11-29T05:41:28.242Z,100547.94
2023-11-29T05:43:55.232Z,100549.38
2023-11-29T05:46:22.222Z,100547.50
2023-11-29T05:48:49.277Z,100547.94
2023-11-29T05:51:16.146Z,100545.47
2023-11-29T05:53:43.091Z,100554.69
2023-11-29T05:56:10.283Z,100553.91
2023-11-29T05:58:40.910Z,100554.91
2023-11-29T06:01:08.674Z,100559.69
2023-11-29T06:03:35.665Z,100562.53
2023-11-29T06:06:02.625Z,100568.28
2023-11-29T06:08:29.991Z,100567.84
2023-11-29T06:10:56.859Z,100565.38
2023-11-29T06:13:23.851Z,100565.38
2023-11-29T06:15:50.806Z,100560.84
2023-11-29T06:18:17.846Z,100559.03
2023-11-29T06:20:44.748Z,100559.22
2023-11-29T06:23:11.721Z,100561.47
2023-11-29T06:25:38.662Z,100555.28
2023-11-29T06:28:05.790Z,100557.97
2023-11-29T06:30:32.723Z,100559.38
2023-11-29T06:32:59.856Z,100562.69
2023-11-29T06:35:26.843Z,100565.13
2023-11-29T06:37:59.495Z,100565.31
2023-11-29T06:40:29.738Z,100571.47
2023-11-29T06:42:56.677Z,100563.00
2023-11-29T06:45:23.890Z,100567.94
2023-11-29T06:47:52.363Z,100568.09
2023-11-29T06:50:19.776Z,100565.59
2023-11-29T06:52:48.230Z,100569.25
2023-11-29T06:55:15.403Z,100565.59
2023-11-29T06:57:42.355Z,100573.97
2023-11-29T07:00:12.758Z,100568.06
2023-11-29T07:02:40.678Z,100567.59
2023-11-29T07:05:08.793Z,100575.78
2023-11-29T07:07:36.515Z,100579.47
2023-11-29T07:10:06.300Z,100583.81
2023-11-29T07:12:33.507Z,100581.72
2023-11-29T07:15:00.772Z,100585.47
2023-11-29T07:17:28.364Z,100586.06
2023-11-29T07:19:55.343Z,100592.00
2023-11-29T07:22:25.570Z,100594.28
2023-11-29T07:24:53.536Z,100599.59
2023-11-29T07:27:21.103Z,100595.88
2023-11-29T07:29:48.021Z,100592.44
2023-11-29T07:32:18.699Z,100594.06
2023-11-29T07:34:48.218Z,100606.19
2023-11-29T07:37:19.693Z,100603.34
2023-11-29T07:39:46.649Z,100595.16
2023-11-29T07:42:14.278Z,100603.00
2023-11-29T07:44:42.053Z,100604.44
2023-11-29T07:47:09.216Z,100613.09
2023-11-29T07:49:36.098Z,100606.72
2023-11-29T07:52:04.002Z,100614.53
2023-11-29T07:54:32.288Z,100612.88
2023-11-29T07:56:59.336Z,100617.41
2023-11-29T07:59:28.487Z,100623.16
2023-11-29T08:01:55.538Z,100624.16
2023-11-29T08:04:22.665Z,100627.44
2023-11-29T08:06:49.826Z,100632.78
2023-11-29T08:09:16.815Z,100635.47
2023-11-29T08:11:45.981Z,100637.13
2023-11-29T08:14:13.195Z,100628.50
2023-11-29T08:16:40.086Z,100636.94
2023-11-29T08:19:07.868Z,100633.06
2023-11-29T08:21:34.922Z,100633.72
2023-11-29T08:24:02.923Z,100636.81
2023-11-29T08:26:29.975Z,100633.94
2023-11-29T08:28:56.948Z,100633.13
2023-11-29T08:31:24.238Z,100630.06
2023-11-29T08:33:51.137Z,100633.34
2023-11-29T08:36:18.095Z,100633.13
2023-11-29T08:38:45.232Z,100632.56
2023-11-29T08:41:12.114Z,100636.25
2023-11-29T08:43:39.048Z,100638.72
2023-11-29T08:46:06.182Z,100634.00
2023-11-29T08:48:33.837Z,100634.63
2023-11-29T08:51:01.048Z,100635.44
2023-11-29T08:53:33.668Z,100629.50
2023-11-29T08:56:15.412Z,100629.50
2023-11-29T08:58:42.316Z,100630.38
2023-11-29T09:01:11.562Z,100639.41
2023-11-29T09:03:38.595Z,100633.84
2023-11-29T09:06:05.798Z,100641.00
2023-11-29T09:08:32.756Z,100644.13
2023-11-29T09:10:59.779Z,100643.91
2023-11-29T09:13:27.353Z,100648.25
2023-11-29T09:15:57.162Z,100649.66
2023-11-29T09:18:24.699Z,100649.06
2023-11-29T09:20:51.669Z,100653.59
2023-11-29T09:23:18.790Z,100657.28
2023-11-29T09:25:45.641Z,100654.19
2023-11-29T09:28:17.064Z,100665.88
2023-11-29T09:30:45.529Z,100655.56
2023-11-29T09:33:13.055Z,100651.88
2023-11-29T09:35:40.077Z,100648.38
2023-11-29T09:38:07.123Z,100653.31
2023-11-29T09:40:34.011Z,100649.84
2023-11-29T09:43:01.211Z,100652.88
2023-11-29T09:45:28.697Z,100648.78
2023-11-29T09:47:58.562Z,100657.25
2023-11-29T09:50:28.904Z,100666.47
2023-11-29T09:52:58.432Z,100660.72
2023-11-29T09:55:26.832Z,100655.81
2023-11-29T09:57:54.519Z,100646.59
2023-11-29T10:00:21.490Z,100648.44
2023-11-29T10:02:48.504Z,100643.50
2023-11-29T10:05:15.765Z,100646.41
2023-11-29T10:07:42.937Z,100644.56
2023-11-29T10:10:11.399Z,100648.06
2023-11-29T10:12:40.179Z,100640.66
2023-11-29T10:15:11.924Z,100639.81
2023-11-29T10:17:43.534Z,100643.94
2023-11-29T10:20:14.167Z,100639.00
2023-11-29T10:22:41.097Z,100638.19
2023-11-29T10:25:20.890Z,100638.38
2023-11-29T10:27:48.992Z,100636.09
2023-11-29T10:30:16.950Z,100636.09
2023-11-29T10:32:46.236Z,100634.69
2023-11-29T10:35:14.782Z,100627.06
2023-11-29T10:37:47.853Z,100623.97
2023-11-29T10:40:15.682Z,100616.75
2023-11-29T10:42:49.668Z,100618.63
2023-11-29T10:45:19.058Z,100614.28
2023-11-29T10:47:57.538Z,100608.09
2023-11-29T10:50:27.247Z,100604.63
2023-11-29T10:52:54.592Z,100590.88
2023-11-29T10:55:23.371Z,100585.53
2023-11-29T10:58:24.537Z,100588.00
2023-11-29T11:00:52.259Z,100582.63
2023-11-29T11:03:48.343Z,100579.34
2023-11-29T11:06:24.787Z,100575.81
2023-11-29T11:08:52.541Z,100582.22
2023-11-29T11:11:45.391Z,100571.53
2023-11-29T11:14:21.151Z,100562.25
2023-11-29T11:16:55.786Z,100551.38
2023-11-29T11:19:36.105Z,100539.44
2023-11-29T11:22:07.271Z,100541.72
2023-11-29T11:25:06.295Z,100538.00
2023-11-29T11:27:37.271Z,100527.16
2023-11-29T11:30:18.331Z,100538.25
2023-11-29T11:32:49.734Z,100534.13
2023-11-29T11:35:24.787Z,100537.19
2023-11-29T11:37:57.336Z,100527.53
2023-11-29T11:40:32.218Z,100527.16
2023-11-29T11:42:59.984Z,100524.88
2023-11-29T11:45:30.455Z,100516.66
2023-11-29T11:47:58.300Z,100525.28
2023-11-29T11:50:26.421Z,100520.97
2023-11-29T11:52:54.866Z,100520.56
2023-11-29T11:55:21.973Z,100509.50
2023-11-29T11:57:49.299Z,100517.69
2023-11-29T12:00:18.654Z,100516.47
2023-11-29T12:02:45.864Z,100512.97
2023-11-29T12:05:13.243Z,100501.66
2023-11-29T12:07:46.362Z,100491.38
2023-11-29T12:10:15.184Z,100489.31
2023-11-29T12:12:44.257Z,100495.69
2023-11-29T12:15:18.605Z,100485.03
2023-11-29T12:17:50.138Z,100465.69
2023-11-29T12:20:17.907Z,100476.22
2023-11-29T12:22:47.114Z,100472.09
2023-11-29T12:25:16.348Z,100465.09
2023-11-29T12:27:47.940Z,100462.19
2023-11-29T12:30:15.477Z,100461.00
2023-11-29T12:32:43.148Z,100453.38
2023-11-29T12:35:11.618Z,100445.38
2023-11-29T12:37:47.291Z,100445.78
2023-11-29T12:40:21.030Z,100438.78
2023-11-29T12:42:49.066Z,100430.56
2023-11-29T12:45:17.463Z,100425.84
2023-11-29T12:47:44.752Z,100405.91
2023-11-29T12:50:13.498Z,100406.72
2023-11-29T12:52:40.745Z,100405.88
2023-11-29T12:55:08.055Z,100403.63
2023-11-29T12:57:35.118Z,100399.28
2023-11-29T13:00:02.661Z,100396.97
2023-11-29T13:02:29.742Z,100388.72
2023-11-29T13:04:56.826Z,100379.44
2023-11-29T13:07:23.704Z,100367.72
2023-11-29T13:09:50.634Z,100369.13
2023-11-29T13:12:17.790Z,100373.41
2023-11-29T13:14:44.706Z,100377.31
2023-11-29T13:17:15.530Z,100376.69
2023-11-29T13:19:42.624Z,100379.38
2023-11-29T13:22:10.133Z,100372.19
2023-11-29T13:24:37.363Z,100362.50
2023-11-29T13:27:07.627Z,100368.25
2023-11-29T13:29:35.548Z,100355.06
2023-11-29T13:32:03.273Z,100356.59
2023-11-29T13:34:31.480Z,100344.81
2023-11-29T13:36:59.890Z,100353.34
2023-11-29T13:39:29.018Z,100340.56
2023-11-29T13:41:56.656Z,100334.78
2023-11-29T13:44:27.939Z,100333.31
2023-11-29T13:46:55.422Z,100331.03
2023-11-29T13:49:22.559Z,100329.16
2023-11-29T13:52:00.933Z,100337.34
2023-11-29T13:54:35.704Z,100343.31
2023-11-29T13:57:03.238Z,100334.88
2023-11-29T13:59:30.384Z,100343.47
2023-11-29T14:01:57.556Z,100335.81
2023-11-29T14:04:25.185Z,100335.78
2023-11-29T14:06:54.927Z,100335.78
2023-11-29T14:09:21.863Z,100320.22
2023-11-29T14:11:48.871Z,100326.38
2023-11-29T14:14:20.037Z,100326.38
2023-11-29T14:16:47.523Z,100325.31
2023-11-29T14:19:15.162Z,100323.28
2023-11-29T14:21:42.885Z,100316.69
2023-11-29T14:24:10.084Z,100311.50
2023-11-29T14:26:37.331Z,100306.53
2023-11-29T14:29:07.611Z,100301.88
2023-11-29T14:31:34.933Z,100297.50
2023-11-29T14:34:01.932Z,100303.50
2023-11-29T14:36:28.883Z,100297.09
2023-11-29T14:38:55.966Z,100293.44
2023-11-29T14:41:28.560Z,100294.06
2023-11-29T14:43:55.699Z,100289.06
2023-11-29T14:46:22.633Z,100281.97
2023-11-29T14:48:49.694Z,100278.88
2023-11-29T14:51:16.836Z,100272.53
2023-11-29T14:53:44.586Z,100278.53
2023-11-29T14:56:11.740Z,100273.47
2023-11-29T14:58:38.652Z,100275.81
2023-11-29T15:01:05.878Z,100276.66
2023-11-29T15:03:32.894Z,100279.53
2023-11-29T15:05:59.980Z,100277.47
2023-11-29T15:08:26.942Z,100272.31
2023-11-29T15:10:53.843Z,100268.28
2023-11-29T15:13:20.793Z,100267.66
2023-11-29T15:15:48.240Z,100270.78
2023-11-29T15:18:15.131Z,100258.66
2023-11-29T15:20:42.508Z,100256.84
2023-11-29T15:23:09.337Z,100253.41
2023-11-29T15:25:36.625Z,100246.00
2023-11-29T15:28:04.702Z,100251.16
2023-11-29T15:30:31.676Z,100251.34
2023-11-29T15:32:59.613Z,100262.88
2023-11-29T15:35:27.361Z,100254.03
2023-11-29T15:37:54.378Z,100247.31
2023-11-29T15:40:21.440Z,100245.03
2023-11-29T15:42:48.394Z,100229.81
2023-11-29T15:45:15.358Z,100231.06
2023-11-29T15:47:42.463Z,100233.28
2023-11-29T15:50:09.996Z,100230.16
2023-11-29T15:52:38.475Z,100228.94
2023-11-29T15:55:05.793Z,100225.00
2023-11-29T15:57:32.625Z,100229.72
2023-11-29T15:59:59.546Z,100227.28
2023-11-29T16:02:26.485Z,100233.75
2023-11-29T16:04:53.410Z,100237.84
2023-11-29T16:07:20.391Z,100243.03
2023-11-29T16:09:47.286Z,100257.25
2023-11-29T16:12:14.891Z,100255.03
2023-11-29T16:14:41.934Z,100262.41
2023-11-29T16:17:08.924Z,100252.94
2023-11-29T16:19:36.117Z,100246.16
2023-11-29T16:22:03.004Z,100243.13
2023-11-29T16:24:29.933Z,100248.03
2023-11-29T16:26:56.954Z,100245.16
2023-11-29T16:29:24.212Z,100238.00
2023-11-29T16:31:51.091Z,100234.91
2023-11-29T16:34:18.404Z,100228.56
2023-11-29T16:36:46.440Z,100218.91
2023-11-29T16:39:13.535Z,100222.78
2023-11-29T16:41:40.566Z,100222.59
2023-11-29T16:44:07.540Z,100213.97
2023-11-29T16:46:35.406Z,100217.25
2023-11-29T16:49:05.438Z,100215.22
2023-11-29T16:51:32.644Z,100214.63
2023-11-29T16:53:59.586Z,100214.63
2023-11-29T16:56:26.620Z,100210.50
2023-11-29T16:58:53.596Z,100214.59
2023-11-29T17:01:22.977Z,100218.88
2023-11-29T17:03:52.221Z,100220.91
2023-11-29T17:06:20.669Z,100207.00
2023-11-29T17:08:48.995Z,100202.06
2023-11-29T17:11:15.937Z,100204.75
2023-11-29T17:13:42.816Z,100201.66
2023-11-29T17:16:09.977Z,100205.34
2023-11-29T17:18:37.014Z,100211.13
2023-11-29T17:21:04.232Z,100217.09
2023-11-29T17:23:31.689Z,100210.53
2023-11-29T17:25:58.618Z,100210.09
2023-11-29T17:28:25.561Z,100199.22
2023-11-29T17:30:52.470Z,100204.59
2023-11-29T17:33:19.479Z,100214.25
2023-11-29T17:35:46.401Z,100215.06
2023-11-29T17:38:15.139Z,100211.78
2023-11-29T17:40:42.973Z,100215.06
2023-11-29T17:43:10.530Z,100210.16
2023-11-29T17:45:37.461Z,100215.28
2023-11-29T17:48:04.697Z,100211.59
2023-11-29T17:50:31.640Z,100213.41
2023-11-29T17:52:58.493Z,100216.72
2023-11-29T17:55:25.311Z,100221.25
2023-11-29T17:57:52.201Z,100215.91
2023-11-29T18:00:19.651Z,100214.47
2023-11-29T18:02:46.981Z,100224.31
2023-11-29T18:05:14.045Z,100217.13
2023-11-29T18:07:40.997Z,100213.22
2023-11-29T18:10:08.698Z,100212.22
2023-11-29T18:12:35.521Z,100220.22
2023-11-29T18:15:02.549Z,100222.88
2023-11-29T18:17:29.488Z,100225.13
2023-11-29T18:19:56.529Z,100228.63
2023-11-29T18:22:23.404Z,100227.19
2023-11-29T18:24:50.252Z,100233.34
2023-11-29T18:27:17.204Z,100227.78
2023-11-29T18:29:44.108Z,100222.66
2023-11-29T18:32:11.319Z,100232.50
2023-11-29T18:34:38.384Z,100218.97
2023-11-29T18:37:09.688Z,100220.63
2023-11-29T18:39:36.820Z,100233.78
2023-11-29T18:42:03.935Z,100232.13
2023-11-29T18:44:30.844Z,100225.13
2023-11-29T18:46:59.193Z,100222.47
2023-11-29T18:49:27.389Z,100223.09
2023-11-29T18:51:54.376Z,100231.31
2023-11-29T18:54:22.660Z,100223.09
2023-11-29T18:56:50.282Z,100217.13
2023-11-29T18:59:18.416Z,100220.44
2023-11-29T19:01:47.997Z,100221.22
2023-11-29T19:04:15.312Z,100219.41
2023-11-29T19:06:43.472Z,100215.91
2023-11-29T19:09:11.421Z,100207.91
2023-11-29T19:11:38.521Z,100203.19
2023-11-29T19:14:06.684Z,100199.06
2023-11-29T19:16:34.754Z,100216.13
2023-11-29T19:19:04.311Z,100202.13
2023-11-29T19:21:31.153Z,100195.78
2023-11-29T19:23:59.242Z,100190.22
2023-11-29T19:26:34.772Z,100192.91
2023-11-29T19:29:04.467Z,100188.41
2023-11-29T19:31:31.749Z,100195.34
2023-11-29T19:33:59.033Z,100196.41
2023-11-29T19:36:25.870Z,100203.38
2023-11-29T19:38:52.749Z,100202.34
2023-11-29T19:41:20.880Z,100201.28
2023-11-29T19:43:49.192Z,100203.38
2023-11-29T19:46:16.211Z,100198.25
2023-11-29T19:48:43.388Z,100198.44
2023-11-29T19:51:10.383Z,100190.00
2023-11-29T19:53:37.544Z,100186.72
2023-11-29T19:56:04.587Z,100185.06
2023-11-29T19:58:32.878Z,100189.78
2023-11-29T20:01:01.035Z,100183.84
2023-11-29T20:03:28.333Z,100175.22
2023-11-29T20:05:55.633Z,100179.31
2023-11-29T20:08:22.620Z,100168.81
2023-11-29T20:10:55.591Z,100166.56
2023-11-29T20:13:23.884Z,100161.00
2023-11-29T20:15:51.692Z,100152.78
2023-11-29T20:18:19.952Z,100164.06
2023-11-29T20:23:19.332Z,100143.53
2023-11-29T20:25:46.247Z,100132.28
2023-11-29T20:28:16.247Z,100135.75
2023-11-29T20:30:43.266Z,100122.63
2023-11-29T20:33:10.601Z,100120.53
2023-11-29T20:35:40.428Z,100109.06
2023-11-29T20:38:07.922Z,100113.81
2023-11-29T20:40:44.494Z,100111.56
2023-11-29T20:43:16.095Z,100108.84
2023-11-29T20:45:42.982Z,100104.75
2023-11-29T20:48:09.993Z,100097.81
2023-11-29T20:50:38.914Z,100100.84
2023-11-29T20:53:14.346Z,100092.03
2023-11-29T20:55:47.967Z,100108.06
2023-11-29T20:58:17.017Z,100108.69
2023-11-29T21:00:45.526Z,100105.56
2023-11-29T21:03:13.244Z,100111.94
2023-11-29T21:05:40.738Z,100116.72
2023-11-29T21:08:08.309Z,100116.88
2023-11-29T21:10:35.252Z,100119.38
2023-11-29T21:13:02.149Z,100120.59
2023-11-29T21:15:29.170Z,100110.53
2023-11-29T21:17:58.379Z,100097.19
2023-11-29T21:20:25.523Z,100100.06
2023-11-29T21:22:52.613Z,100098.81
2023-11-29T21:25:19.676Z,100102.50
2023-11-29T21:27:46.608Z,100095.34
2023-11-29T21:30:13.764Z,100089.56
2023-11-29T21:32:40.793Z,100088.78
2023-11-29T21:35:07.827Z,100084.88
2023-11-29T21:37:34.713Z,100087.53
2023-11-29T21:40:01.574Z,100090.22
2023-11-29T21:42:28.501Z,100076.25
2023-11-29T21:44:55.580Z,100075.25
2023-11-29T21:47:22.557Z,100074.81
2023-11-29T21:49:49.512Z,100079.34
2023-11-29T21:52:17.849Z,100080.16
2023-11-29T21:54:44.729Z,100087.56
2023-11-29T21:57:11.720Z,100095.16
2023-11-29T21:59:38.682Z,100089.03
2023-11-29T22:02:05.622Z,100094.78
2023-11-29T22:04:32.702Z,100088.44
2023-11-29T22:06:59.521Z,100089.69
2023-11-29T22:09:26.557Z,100089.47
2023-11-29T22:11:53.434Z,100073.09
2023-11-29T22:14:20.347Z,100072.25
2023-11-29T22:16:47.191Z,100075.97
2023-11-29T22:19:14.566Z,100071.88
2023-11-29T22:21:41.678Z,100072.88
2023-11-29T22:24:08.600Z,100064.47
2023-11-29T22:26:47.523Z,100073.69
2023-11-29T22:29:22.501Z,100073.69
2023-11-29T22:31:51.154Z,100071.22
2023-11-29T22:34:18.062Z,100071.66
2023-11-29T22:36:45.000Z,100076.16
2023-11-29T22:39:12.872Z,100075.75
2023-11-29T22:41:39.809Z,100073.28
2023-11-29T22:44:09.413Z,100065.47
2023-11-29T22:46:36.644Z,100050.31
2023-11-29T22:49:03.949Z,100057.47
2023-11-29T22:51:31.333Z,100059.91
2023-11-29T22:54:04.044Z,100065.66
2023-11-29T22:56:34.550Z,100071.22
2023-11-29T22:59:01.464Z,100057.47
2023-11-29T23:01:29.954Z,100051.09
2023-11-29T23:03:57.405Z,100050.06
2023-11-29T23:06:25.243Z,100056.22
2023-11-29T23:08:52.105Z,100059.53
2023-11-29T23:11:19.107Z,100049.03
2023-11-29T23:13:46.000Z,100046.78
2023-11-29T23:16:13.314Z,100050.25
2023-11-29T23:18:40.284Z,100045.34
2023-11-29T23:21:07.339Z,100051.53
2023-11-29T23:23:34.227Z,100053.13
2023-11-29T23:26:01.065Z,100047.59
2023-11-29T23:28:28.050Z,100047.81
2023-11-29T23:30:55.224Z,100034.47
2023-11-29T23:33:22.223Z,100035.09
2023-11-29T23:35:49.087Z,100032.22
2023-11-29T23:38:15.938Z,100031.41
2023-11-29T23:40:43.591Z,100040.44
2023-11-29T23:43:10.769Z,100041.47
2023-11-29T23:45:37.724Z,100042.09
2023-11-29T23:48:04.819Z,100037.19
2023-11-29T23:50:31.820Z,100033.06
2023-11-29T23:52:58.706Z,100028.13
2023-11-29T23:55:25.657Z,100035.13
2023-11-29T23:57:52.517Z,100031.84
